sensor_id;sensor_type;location;lat;lon;timestamp;noise_LAeq;noise_LA_min;noise_LA_max;noise_LA01;noise_LA95
53702;Laerm;39594;52.194;9.886;2023-01-25T00:00:34;52.27;32.93;69.98;;
53702;Laerm;39594;52.194;9.886;2023-01-25T00:02:59;38.25;31.68;41.06;;
53702;Laerm;39594;52.194;9.886;2023-01-25T00:05:24;39.02;32.93;42.09;;
53702;Laerm;39594;52.194;9.886;2023-01-25T00:07:50;38.93;34.31;42.09;;
53702;Laerm;39594;52.194;9.886;2023-01-25T00:10:15;59.61;34.31;76.69;;
53702;Laerm;39594;52.194;9.886;2023-01-25T00:12:40;59.51;33.90;77.86;;
53702;Laerm;39594;52.194;9.886;2023-01-25T00:15:06;38.47;33.90;42.59;;
53702;Laerm;39594;52.194;9.886;2023-01-25T00:17:31;38.46;33.44;41.38;;
53702;Laerm;39594;52.194;9.886;2023-01-25T00:19:56;38.37;31.68;40.98;;
53702;Laerm;39594;52.194;9.886;2023-01-25T00:22:21;38.43;31.68;41.22;;
53702;Laerm;39594;52.194;9.886;2023-01-25T00:24:47;38.50;32.93;41.38;;
53702;Laerm;39594;52.194;9.886;2023-01-25T00:27:15;38.19;32.93;41.38;;
53702;Laerm;39594;52.194;9.886;2023-01-25T00:29:40;47.20;32.93;63.19;;
53702;Laerm;39594;52.194;9.886;2023-01-25T00:34:37;38.34;23.90;41.53;;
53702;Laerm;39594;52.194;9.886;2023-01-25T00:39:44;38.22;32.35;41.14;;
53702;Laerm;39594;52.194;9.886;2023-01-25T00:42:10;38.17;30.89;41.22;;
53702;Laerm;39594;52.194;9.886;2023-01-25T00:44:36;37.96;31.68;40.71;;
53702;Laerm;39594;52.194;9.886;2023-01-25T00:47:01;38.13;33.44;40.98;;
53702;Laerm;39594;52.194;9.886;2023-01-25T00:49:26;38.07;32.35;41.14;;
53702;Laerm;39594;52.194;9.886;2023-01-25T00:54:20;38.37;32.93;41.06;;
53702;Laerm;39594;52.194;9.886;2023-01-25T00:56:49;38.45;32.93;43.09;;
53702;Laerm;39594;52.194;9.886;2023-01-25T00:59:20;38.30;30.89;41.22;;
53702;Laerm;39594;52.194;9.886;2023-01-25T01:01:45;38.33;32.35;51.26;;
53702;Laerm;39594;52.194;9.886;2023-01-25T01:04:14;50.85;32.35;68.16;;
53702;Laerm;39594;52.194;9.886;2023-01-25T01:06:42;37.97;32.35;40.89;;
53702;Laerm;39594;52.194;9.886;2023-01-25T01:09:15;37.75;31.68;40.71;;
53702;Laerm;39594;52.194;9.886;2023-01-25T01:11:41;37.83;29.92;40.62;;
53702;Laerm;39594;52.194;9.886;2023-01-25T01:14:06;37.81;31.68;40.62;;
53702;Laerm;39594;52.194;9.886;2023-01-25T01:16:34;38.14;32.93;41.11;;
53702;Laerm;39594;52.194;9.886;2023-01-25T01:19:00;38.56;32.35;42.09;;
53702;Laerm;39594;52.194;9.886;2023-01-25T01:21:25;38.39;29.92;45.70;;
53702;Laerm;39594;52.194;9.886;2023-01-25T01:23:52;38.36;32.93;41.96;;
53702;Laerm;39594;52.194;9.886;2023-01-25T01:26:17;49.97;32.00;66.90;;
53702;Laerm;39594;52.194;9.886;2023-01-25T01:28:46;38.58;30.89;42.42;;
53702;Laerm;39594;52.194;9.886;2023-01-25T01:31:15;60.32;33.44;79.12;;
53702;Laerm;39594;52.194;9.886;2023-01-25T01:33:43;38.04;31.68;41.38;;
53702;Laerm;39594;52.194;9.886;2023-01-25T01:36:13;55.52;31.68;72.29;;
53702;Laerm;39594;52.194;9.886;2023-01-25T01:38:39;52.93;31.68;76.81;;
53702;Laerm;39594;52.194;9.886;2023-01-25T01:41:05;37.95;30.89;42.47;;
53702;Laerm;39594;52.194;9.886;2023-01-25T01:43:30;38.14;32.35;44.43;;
53702;Laerm;39594;52.194;9.886;2023-01-25T01:45:57;38.17;30.89;41.30;;
53702;Laerm;39594;52.194;9.886;2023-01-25T01:50:54;38.13;30.89;47.06;;
53702;Laerm;39594;52.194;9.886;2023-01-25T01:53:21;38.08;32.35;40.98;;
53702;Laerm;39594;52.194;9.886;2023-01-25T01:55:48;50.18;31.68;67.50;;
53702;Laerm;39594;52.194;9.886;2023-01-25T01:58:17;38.12;30.89;40.62;;
53702;Laerm;39594;52.194;9.886;2023-01-25T02:00:47;38.22;32.35;41.68;;
53702;Laerm;39594;52.194;9.886;2023-01-25T02:03:12;38.39;32.93;40.98;;
53702;Laerm;39594;52.194;9.886;2023-01-25T02:05:53;37.97;31.68;40.62;;
53702;Laerm;39594;52.194;9.886;2023-01-25T02:08:23;37.69;30.89;40.62;;
53702;Laerm;39594;52.194;9.886;2023-01-25T02:10:49;37.98;32.35;41.68;;
53702;Laerm;39594;52.194;9.886;2023-01-25T02:13:14;38.11;32.35;40.98;;
53702;Laerm;39594;52.194;9.886;2023-01-25T02:15:44;38.16;32.35;41.14;;
53702;Laerm;39594;52.194;9.886;2023-01-25T02:18:10;38.28;31.68;41.14;;
53702;Laerm;39594;52.194;9.886;2023-01-25T02:20:40;53.84;30.89;73.00;;
53702;Laerm;39594;52.194;9.886;2023-01-25T02:25:34;54.41;32.93;74.10;;
53702;Laerm;39594;52.194;9.886;2023-01-25T02:28:01;37.87;30.89;40.53;;
53702;Laerm;39594;52.194;9.886;2023-01-25T02:30:30;37.82;31.68;43.99;;
53702;Laerm;39594;52.194;9.886;2023-01-25T02:32:56;37.95;29.92;40.71;;
53702;Laerm;39594;52.194;9.886;2023-01-25T02:35:22;37.93;32.35;41.14;;
53702;Laerm;39594;52.194;9.886;2023-01-25T02:37:48;37.42;31.68;40.98;;
53702;Laerm;39594;52.194;9.886;2023-01-25T02:40:13;38.19;32.35;41.30;;
53702;Laerm;39594;52.194;9.886;2023-01-25T02:42:42;38.47;32.93;41.30;;
53702;Laerm;39594;52.194;9.886;2023-01-25T02:45:16;57.19;32.35;75.33;;
53702;Laerm;39594;52.194;9.886;2023-01-25T02:47:43;38.57;32.93;41.75;;
53702;Laerm;39594;52.194;9.886;2023-01-25T02:50:09;49.83;31.68;68.45;;
53702;Laerm;39594;52.194;9.886;2023-01-25T02:52:34;50.23;29.92;68.70;;
53702;Laerm;39594;52.194;9.886;2023-01-25T02:54:59;54.82;32.35;74.44;;
53702;Laerm;39594;52.194;9.886;2023-01-25T02:57:25;37.81;32.35;40.71;;
53702;Laerm;39594;52.194;9.886;2023-01-25T02:59:50;37.76;30.89;40.23;;
53702;Laerm;39594;52.194;9.886;2023-01-25T03:02:15;61.45;32.35;78.26;;
53702;Laerm;39594;52.194;9.886;2023-01-25T03:04:41;41.41;32.35;55.64;;
53702;Laerm;39594;52.194;9.886;2023-01-25T03:07:06;38.24;32.00;40.98;;
53702;Laerm;39594;52.194;9.886;2023-01-25T03:09:31;54.37;32.35;71.90;;
53702;Laerm;39594;52.194;9.886;2023-01-25T03:11:57;39.72;32.35;49.23;;
53702;Laerm;39594;52.194;9.886;2023-01-25T03:14:22;39.35;32.93;49.65;;
53702;Laerm;39594;52.194;9.886;2023-01-25T03:16:47;61.60;33.90;79.61;;
53702;Laerm;39594;52.194;9.886;2023-01-25T03:19:12;59.61;32.93;79.86;;
53702;Laerm;39594;52.194;9.886;2023-01-25T03:21:39;50.05;32.93;68.11;;
53702;Laerm;39594;52.194;9.886;2023-01-25T03:24:04;50.49;29.92;67.88;;
53702;Laerm;39594;52.194;9.886;2023-01-25T03:26:33;51.99;31.68;70.46;;
53702;Laerm;39594;52.194;9.886;2023-01-25T03:29:18;51.01;33.44;69.48;;
53702;Laerm;39594;52.194;9.886;2023-01-25T03:31:43;54.50;32.35;70.93;;
53702;Laerm;39594;52.194;9.886;2023-01-25T03:34:08;52.35;31.68;71.25;;
53702;Laerm;39594;52.194;9.886;2023-01-25T03:36:34;53.10;33.55;72.53;;
53702;Laerm;39594;52.194;9.886;2023-01-25T03:38:59;38.65;33.44;41.89;;
53702;Laerm;39594;52.194;9.886;2023-01-25T03:41:25;56.06;33.44;70.61;;
53702;Laerm;39594;52.194;9.886;2023-01-25T03:43:50;54.28;33.09;73.68;;
53702;Laerm;39594;52.194;9.886;2023-01-25T03:46:15;38.38;32.93;40.98;;
53702;Laerm;39594;52.194;9.886;2023-01-25T03:48:40;53.52;35.66;69.42;;
53702;Laerm;39594;52.194;9.886;2023-01-25T03:51:06;51.38;33.97;68.03;;
53702;Laerm;39594;52.194;9.886;2023-01-25T03:53:31;43.94;33.44;60.22;;
53702;Laerm;39594;52.194;9.886;2023-01-25T03:56:04;60.12;31.68;77.88;;
53702;Laerm;39594;52.194;9.886;2023-01-25T03:58:32;62.26;35.36;79.52;;
53702;Laerm;39594;52.194;9.886;2023-01-25T04:00:58;52.64;32.00;68.10;;
53702;Laerm;39594;52.194;9.886;2023-01-25T04:03:23;60.87;35.66;73.19;;
53702;Laerm;39594;52.194;9.886;2023-01-25T04:05:49;61.18;32.35;80.29;;
53702;Laerm;39594;52.194;9.886;2023-01-25T04:08:14;55.29;34.69;70.40;;
53702;Laerm;39594;52.194;9.886;2023-01-25T04:10:40;57.20;33.44;71.38;;
53702;Laerm;39594;52.194;9.886;2023-01-25T04:13:05;59.26;34.31;75.78;;
53702;Laerm;39594;52.194;9.886;2023-01-25T04:15:31;59.78;35.04;73.58;;
53702;Laerm;39594;52.194;9.886;2023-01-25T04:17:56;59.10;36.69;75.03;;
53702;Laerm;39594;52.194;9.886;2023-01-25T04:20:21;61.89;35.94;74.38;;
53702;Laerm;39594;52.194;9.886;2023-01-25T04:22:47;60.95;37.12;74.33;;
53702;Laerm;39594;52.194;9.886;2023-01-25T04:25:14;61.38;34.31;75.13;;
53702;Laerm;39594;52.194;9.886;2023-01-25T04:27:40;59.03;35.66;73.27;;
53702;Laerm;39594;52.194;9.886;2023-01-25T04:30:05;62.22;34.69;75.27;;
53702;Laerm;39594;52.194;9.886;2023-01-25T04:32:31;61.68;38.52;73.58;;
53702;Laerm;39594;52.194;9.886;2023-01-25T04:35:01;62.12;40.13;72.71;;
53702;Laerm;39594;52.194;9.886;2023-01-25T04:37:29;63.29;37.12;79.92;;
53702;Laerm;39594;52.194;9.886;2023-01-25T04:39:54;57.75;33.90;73.99;;
53702;Laerm;39594;52.194;9.886;2023-01-25T04:42:19;62.66;35.36;73.14;;
53702;Laerm;39594;52.194;9.886;2023-01-25T04:44:45;62.02;36.45;73.72;;
53702;Laerm;39594;52.194;9.886;2023-01-25T04:47:10;63.14;35.04;75.64;;
53702;Laerm;39594;52.194;9.886;2023-01-25T04:49:35;54.82;33.90;74.62;;
53702;Laerm;39594;52.194;9.886;2023-01-25T04:52:00;60.71;33.90;74.02;;
53702;Laerm;39594;52.194;9.886;2023-01-25T04:54:29;58.76;34.31;73.83;;
53702;Laerm;39594;52.194;9.886;2023-01-25T04:56:54;58.99;35.66;71.90;;
53702;Laerm;39594;52.194;9.886;2023-01-25T04:59:22;59.66;36.45;71.80;;
53702;Laerm;39594;52.194;9.886;2023-01-25T05:01:50;59.55;34.69;72.73;;
53702;Laerm;39594;52.194;9.886;2023-01-25T05:04:19;58.83;34.69;71.72;;
53702;Laerm;39594;52.194;9.886;2023-01-25T05:06:44;60.56;34.31;77.84;;
53702;Laerm;39594;52.194;9.886;2023-01-25T05:09:12;61.45;33.90;76.66;;
53702;Laerm;39594;52.194;9.886;2023-01-25T05:11:41;61.84;35.04;78.20;;
53702;Laerm;39594;52.194;9.886;2023-01-25T05:14:10;60.83;34.69;73.36;;
53702;Laerm;39594;52.194;9.886;2023-01-25T05:16:35;63.30;39.46;74.44;;
53702;Laerm;39594;52.194;9.886;2023-01-25T05:19:00;62.58;35.94;77.40;;
53702;Laerm;39594;52.194;9.886;2023-01-25T05:21:31;61.12;38.37;75.16;;
53702;Laerm;39594;52.194;9.886;2023-01-25T05:24:39;63.70;36.20;73.79;;
53702;Laerm;39594;52.194;9.886;2023-01-25T05:27:10;61.76;37.88;74.12;;
53702;Laerm;39594;52.194;9.886;2023-01-25T05:29:37;63.18;39.21;75.77;;
53702;Laerm;39594;52.194;9.886;2023-01-25T05:32:07;63.69;40.33;74.77;;
53702;Laerm;39594;52.194;9.886;2023-01-25T05:34:32;62.82;36.10;72.30;;
53702;Laerm;39594;52.194;9.886;2023-01-25T05:37:01;64.81;39.81;79.11;;
53702;Laerm;39594;52.194;9.886;2023-01-25T05:39:28;65.07;37.52;79.92;;
53702;Laerm;39594;52.194;9.886;2023-01-25T05:41:53;65.22;39.70;73.93;;
53702;Laerm;39594;52.194;9.886;2023-01-25T05:44:19;63.12;39.21;76.13;;
53702;Laerm;39594;52.194;9.886;2023-01-25T05:46:45;66.08;35.66;79.66;;
53702;Laerm;39594;52.194;9.886;2023-01-25T05:49:10;64.02;36.56;73.65;;
53702;Laerm;39594;52.194;9.886;2023-01-25T05:51:35;63.63;42.71;73.55;;
53702;Laerm;39594;52.194;9.886;2023-01-25T05:54:04;66.24;43.34;78.25;;
53702;Laerm;39594;52.194;9.886;2023-01-25T05:56:33;63.44;40.33;73.01;;
53702;Laerm;39594;52.194;9.886;2023-01-25T05:58:58;63.88;40.23;75.01;;
53702;Laerm;39594;52.194;9.886;2023-01-25T06:01:24;64.23;37.12;74.02;;
53702;Laerm;39594;52.194;9.886;2023-01-25T06:03:50;65.26;38.52;75.99;;
53702;Laerm;39594;52.194;9.886;2023-01-25T06:06:18;65.40;40.23;77.01;;
53702;Laerm;39594;52.194;9.886;2023-01-25T06:08:43;65.47;39.81;73.01;;
53702;Laerm;39594;52.194;9.886;2023-01-25T06:11:10;60.97;37.32;73.95;;
53702;Laerm;39594;52.194;9.886;2023-01-25T06:13:36;65.38;39.21;78.46;;
53702;Laerm;39594;52.194;9.886;2023-01-25T06:16:04;64.09;38.52;74.66;;
53702;Laerm;39594;52.194;9.886;2023-01-25T06:18:30;63.78;36.91;74.33;;
53702;Laerm;39594;52.194;9.886;2023-01-25T06:20:56;66.33;40.71;78.30;;
53702;Laerm;39594;52.194;9.886;2023-01-25T06:23:21;65.27;41.75;76.50;;
53702;Laerm;39594;52.194;9.886;2023-01-25T06:25:46;65.42;37.88;78.79;;
53702;Laerm;39594;52.194;9.886;2023-01-25T06:28:12;66.26;39.34;74.79;;
53702;Laerm;39594;52.194;9.886;2023-01-25T06:30:37;64.76;42.53;76.11;;
53702;Laerm;39594;52.194;9.886;2023-01-25T06:33:02;64.35;43.24;74.83;;
53702;Laerm;39594;52.194;9.886;2023-01-25T06:35:28;63.55;39.81;73.23;;
53702;Laerm;39594;52.194;9.886;2023-01-25T06:37:55;65.87;37.12;75.85;;
53702;Laerm;39594;52.194;9.886;2023-01-25T06:40:23;65.34;40.23;74.72;;
53702;Laerm;39594;52.194;9.886;2023-01-25T06:42:49;64.00;39.11;72.71;;
53702;Laerm;39594;52.194;9.886;2023-01-25T06:45:14;65.58;39.92;77.88;;
53702;Laerm;39594;52.194;9.886;2023-01-25T06:47:42;66.15;43.90;77.50;;
53702;Laerm;39594;52.194;9.886;2023-01-25T06:50:14;63.59;40.18;74.53;;
53702;Laerm;39594;52.194;9.886;2023-01-25T06:55:08;66.75;40.62;76.13;;
53702;Laerm;39594;52.194;9.886;2023-01-25T06:57:37;66.53;39.78;78.13;;
53702;Laerm;39594;52.194;9.886;2023-01-25T07:00:03;67.22;42.58;76.56;;
53702;Laerm;39594;52.194;9.886;2023-01-25T07:02:28;67.65;39.81;80.95;;
53702;Laerm;39594;52.194;9.886;2023-01-25T07:04:53;66.22;41.06;76.53;;
53702;Laerm;39594;52.194;9.886;2023-01-25T07:07:18;68.42;41.68;78.05;;
53702;Laerm;39594;52.194;9.886;2023-01-25T07:09:43;68.94;39.11;81.17;;
53702;Laerm;39594;52.194;9.886;2023-01-25T07:12:08;67.58;46.73;77.65;;
53702;Laerm;39594;52.194;9.886;2023-01-25T07:14:34;66.27;42.71;78.44;;
53702;Laerm;39594;52.194;9.886;2023-01-25T07:16:59;66.02;40.71;82.96;;
53702;Laerm;39594;52.194;9.886;2023-01-25T07:19:24;65.11;39.46;76.00;;
53702;Laerm;39594;52.194;9.886;2023-01-25T07:21:50;63.00;38.37;73.72;;
53702;Laerm;39594;52.194;9.886;2023-01-25T07:24:16;67.21;38.81;81.98;;
53702;Laerm;39594;52.194;9.886;2023-01-25T07:26:41;65.25;39.21;77.46;;
53702;Laerm;39594;52.194;9.886;2023-01-25T07:29:07;56.87;35.04;71.73;;
53702;Laerm;39594;52.194;9.886;2023-01-25T07:31:35;64.06;39.81;74.65;;
53702;Laerm;39594;52.194;9.886;2023-01-25T07:34:00;62.73;35.94;77.36;;
53702;Laerm;39594;52.194;9.886;2023-01-25T07:36:25;66.21;37.32;79.31;;
53702;Laerm;39594;52.194;9.886;2023-01-25T07:38:51;65.53;37.12;76.87;;
53702;Laerm;39594;52.194;9.886;2023-01-25T07:41:17;65.33;38.05;77.43;;
53702;Laerm;39594;52.194;9.886;2023-01-25T07:43:42;58.63;36.20;71.16;;
53702;Laerm;39594;52.194;9.886;2023-01-25T07:46:08;65.56;39.08;77.31;;
53702;Laerm;39594;52.194;9.886;2023-01-25T07:48:37;65.55;38.67;77.88;;
53702;Laerm;39594;52.194;9.886;2023-01-25T07:51:04;61.57;33.44;75.32;;
53702;Laerm;39594;52.194;9.886;2023-01-25T07:53:36;63.35;38.81;72.47;;
53702;Laerm;39594;52.194;9.886;2023-01-25T07:56:01;64.70;37.70;79.84;;
53702;Laerm;39594;52.194;9.886;2023-01-25T07:58:27;62.09;37.52;74.91;;
53702;Laerm;39594;52.194;9.886;2023-01-25T08:00:52;59.68;37.12;71.99;;
53702;Laerm;39594;52.194;9.886;2023-01-25T08:03:17;62.87;35.36;75.85;;
53702;Laerm;39594;52.194;9.886;2023-01-25T08:05:46;65.32;42.41;80.48;;
53702;Laerm;39594;52.194;9.886;2023-01-25T08:08:11;62.94;36.45;77.44;;
53702;Laerm;39594;52.194;9.886;2023-01-25T08:10:37;61.73;34.69;78.50;;
53702;Laerm;39594;52.194;9.886;2023-01-25T08:13:02;64.38;36.91;80.42;;
53702;Laerm;39594;52.194;9.886;2023-01-25T08:15:27;63.66;35.66;76.99;;
53702;Laerm;39594;52.194;9.886;2023-01-25T08:17:52;60.89;35.36;72.59;;
53702;Laerm;39594;52.194;9.886;2023-01-25T08:20:18;62.04;36.45;72.37;;
53702;Laerm;39594;52.194;9.886;2023-01-25T08:22:43;62.18;37.32;75.19;;
53702;Laerm;39594;52.194;9.886;2023-01-25T08:25:08;59.68;37.12;72.68;;
53702;Laerm;39594;52.194;9.886;2023-01-25T08:27:34;63.96;36.91;78.21;;
53702;Laerm;39594;52.194;9.886;2023-01-25T08:29:59;60.71;35.94;73.49;;
53702;Laerm;39594;52.194;9.886;2023-01-25T08:32:24;66.28;39.08;81.46;;
53702;Laerm;39594;52.194;9.886;2023-01-25T08:34:49;62.93;37.70;77.88;;
53702;Laerm;39594;52.194;9.886;2023-01-25T08:37:14;64.20;38.95;78.03;;
53702;Laerm;39594;52.194;9.886;2023-01-25T08:39:40;61.76;36.20;72.92;;
53702;Laerm;39594;52.194;9.886;2023-01-25T08:42:05;64.61;35.66;79.17;;
53702;Laerm;39594;52.194;9.886;2023-01-25T08:44:30;61.47;38.05;73.11;;
53702;Laerm;39594;52.194;9.886;2023-01-25T08:46:55;60.89;35.94;72.94;;
53702;Laerm;39594;52.194;9.886;2023-01-25T08:49:21;64.06;37.12;75.87;;
53702;Laerm;39594;52.194;9.886;2023-01-25T08:51:46;59.43;33.90;73.07;;
53702;Laerm;39594;52.194;9.886;2023-01-25T08:54:12;65.07;36.20;77.51;;
53702;Laerm;39594;52.194;9.886;2023-01-25T08:56:40;66.76;40.62;80.57;;
53702;Laerm;39594;52.194;9.886;2023-01-25T08:59:06;62.48;39.08;81.75;;
53702;Laerm;39594;52.194;9.886;2023-01-25T09:01:31;64.66;38.67;78.27;;
53702;Laerm;39594;52.194;9.886;2023-01-25T09:03:56;64.53;36.45;80.81;;
53702;Laerm;39594;52.194;9.886;2023-01-25T09:06:22;63.66;40.23;74.72;;
53702;Laerm;39594;52.194;9.886;2023-01-25T09:08:47;63.40;37.52;78.06;;
53702;Laerm;39594;52.194;9.886;2023-01-25T09:11:16;63.06;40.23;82.93;;
53702;Laerm;39594;52.194;9.886;2023-01-25T09:13:42;67.27;40.98;81.55;;
53702;Laerm;39594;52.194;9.886;2023-01-25T09:16:09;63.66;39.58;78.17;;
53702;Laerm;39594;52.194;9.886;2023-01-25T09:18:34;66.57;41.68;82.12;;
53702;Laerm;39594;52.194;9.886;2023-01-25T09:21:07;62.65;37.12;76.15;;
53702;Laerm;39594;52.194;9.886;2023-01-25T09:23:32;61.52;34.69;80.30;;
53702;Laerm;39594;52.194;9.886;2023-01-25T09:25:58;66.48;35.36;78.11;;
53702;Laerm;39594;52.194;9.886;2023-01-25T09:28:25;65.45;41.68;77.83;;
53702;Laerm;39594;52.194;9.886;2023-01-25T09:30:54;65.69;38.95;79.77;;
53702;Laerm;39594;52.194;9.886;2023-01-25T09:33:20;60.82;38.05;72.15;;
53702;Laerm;39594;52.194;9.886;2023-01-25T09:35:48;61.35;37.70;74.16;;
53702;Laerm;39594;52.194;9.886;2023-01-25T09:38:13;65.51;35.36;80.93;;
53702;Laerm;39594;52.194;9.886;2023-01-25T09:40:39;60.07;32.93;74.23;;
53702;Laerm;39594;52.194;9.886;2023-01-25T09:43:15;62.01;38.32;74.81;;
53702;Laerm;39594;52.194;9.886;2023-01-25T09:45:46;63.26;39.34;77.14;;
53702;Laerm;39594;52.194;9.886;2023-01-25T09:50:47;63.09;38.05;73.27;;
53702;Laerm;39594;52.194;9.886;2023-01-25T09:55:43;60.91;34.69;76.44;;
53702;Laerm;39594;52.194;9.886;2023-01-25T09:58:17;65.63;41.46;80.55;;
53702;Laerm;39594;52.194;9.886;2023-01-25T10:00:43;66.93;38.21;79.70;;
53702;Laerm;39594;52.194;9.886;2023-01-25T10:03:14;66.99;37.12;84.00;;
53702;Laerm;39594;52.194;9.886;2023-01-25T10:05:45;60.41;36.69;73.31;;
53702;Laerm;39594;52.194;9.886;2023-01-25T10:08:13;59.23;35.36;72.24;;
53702;Laerm;39594;52.194;9.886;2023-01-25T10:10:44;65.78;38.95;82.86;;
53702;Laerm;39594;52.194;9.886;2023-01-25T10:13:11;62.21;36.91;77.46;;
53702;Laerm;39594;52.194;9.886;2023-01-25T10:15:38;64.59;37.70;80.28;;
53702;Laerm;39594;52.194;9.886;2023-01-25T10:20:49;60.19;35.04;72.23;;
53702;Laerm;39594;52.194;9.886;2023-01-25T10:26:02;62.36;36.69;77.43;;
53702;Laerm;39594;52.194;9.886;2023-01-25T10:28:40;62.02;33.90;75.72;;
53702;Laerm;39594;52.194;9.886;2023-01-25T10:31:18;63.65;32.35;79.32;;
53702;Laerm;39594;52.194;9.886;2023-01-25T10:33:45;61.13;37.32;72.51;;
53702;Laerm;39594;52.194;9.886;2023-01-25T10:36:15;65.94;38.81;80.02;;
53702;Laerm;39594;52.194;9.886;2023-01-25T10:38:42;63.45;37.12;78.87;;
53702;Laerm;39594;52.194;9.886;2023-01-25T10:41:11;63.73;40.62;77.91;;
53702;Laerm;39594;52.194;9.886;2023-01-25T10:43:37;64.01;40.71;77.34;;
53702;Laerm;39594;52.194;9.886;2023-01-25T10:46:03;63.52;38.95;75.11;;
53702;Laerm;39594;52.194;9.886;2023-01-25T10:48:29;64.56;38.60;79.85;;
53702;Laerm;39594;52.194;9.886;2023-01-25T10:50:57;66.27;39.92;81.04;;
53702;Laerm;39594;52.194;9.886;2023-01-25T10:53:27;63.19;39.34;78.70;;
53702;Laerm;39594;52.194;9.886;2023-01-25T11:01:40;65.48;40.33;78.27;;
53702;Laerm;39594;52.194;9.886;2023-01-25T11:04:20;61.20;35.36;77.91;;
53702;Laerm;39594;52.194;9.886;2023-01-25T11:06:47;62.70;37.88;77.69;;
53702;Laerm;39594;52.194;9.886;2023-01-25T11:11:58;61.75;35.36;72.63;;
53702;Laerm;39594;52.194;9.886;2023-01-25T11:14:24;62.85;39.08;77.49;;
53702;Laerm;39594;52.194;9.886;2023-01-25T11:16:53;62.28;38.02;74.60;;
53702;Laerm;39594;52.194;9.886;2023-01-25T11:22:19;63.99;37.12;73.45;;
53702;Laerm;39594;52.194;9.886;2023-01-25T11:24:47;59.38;35.36;72.94;;
53702;Laerm;39594;52.194;9.886;2023-01-25T11:27:21;61.67;38.37;73.06;;
53702;Laerm;39594;52.194;9.886;2023-01-25T11:30:10;62.90;41.30;73.95;;
53702;Laerm;39594;52.194;9.886;2023-01-25T11:32:45;58.15;33.44;72.76;;
53702;Laerm;39594;52.194;9.886;2023-01-25T11:35:31;62.34;38.95;73.68;;
53702;Laerm;39594;52.194;9.886;2023-01-25T11:40:40;64.30;40.80;77.99;;
53702;Laerm;39594;52.194;9.886;2023-01-25T11:51:05;60.71;37.12;73.08;;
53702;Laerm;39594;52.194;9.886;2023-01-25T11:53:45;64.90;41.22;81.51;;
53702;Laerm;39594;52.194;9.886;2023-01-25T11:56:34;63.44;39.92;73.96;;
53702;Laerm;39594;52.194;9.886;2023-01-25T12:04:51;60.71;38.81;75.91;;
53702;Laerm;39594;52.194;9.886;2023-01-25T12:12:40;64.83;39.58;78.14;;
53702;Laerm;39594;52.194;9.886;2023-01-25T12:25:15;62.58;40.03;73.28;;
53702;Laerm;39594;52.194;9.886;2023-01-25T12:32:54;64.27;41.06;73.02;;
53702;Laerm;39594;52.194;9.886;2023-01-25T12:37:45;63.22;38.95;74.10;;
53702;Laerm;39594;52.194;9.886;2023-01-25T12:40:17;65.31;39.21;81.63;;
53702;Laerm;39594;52.194;9.886;2023-01-25T12:42:46;62.74;38.21;78.19;;
53702;Laerm;39594;52.194;9.886;2023-01-25T12:45:16;63.22;39.70;77.18;;
53702;Laerm;39594;52.194;9.886;2023-01-25T12:47:52;66.99;38.37;84.44;;
53702;Laerm;39594;52.194;9.886;2023-01-25T12:55:13;63.69;41.61;74.14;;
53702;Laerm;39594;52.194;9.886;2023-01-25T13:00:31;62.09;40.03;77.90;;
53702;Laerm;39594;52.194;9.886;2023-01-25T13:03:06;64.15;36.45;78.60;;
53702;Laerm;39594;52.194;9.886;2023-01-25T13:10:53;62.59;38.21;73.54;;
53702;Laerm;39594;52.194;9.886;2023-01-25T13:13:22;63.83;40.53;75.01;;
53702;Laerm;39594;52.194;9.886;2023-01-25T13:15:48;66.35;40.80;84.34;;
53702;Laerm;39594;52.194;9.886;2023-01-25T13:20:59;63.19;39.08;75.50;;
53702;Laerm;39594;52.194;9.886;2023-01-25T13:23:34;65.33;42.47;77.74;;
53702;Laerm;39594;52.194;9.886;2023-01-25T13:28:44;62.37;38.47;74.72;;
53702;Laerm;39594;52.194;9.886;2023-01-25T13:31:29;61.81;39.46;71.95;;
53702;Laerm;39594;52.194;9.886;2023-01-25T13:33:55;66.10;40.03;79.34;;
53702;Laerm;39594;52.194;9.886;2023-01-25T13:39:01;64.81;38.95;76.17;;
53702;Laerm;39594;52.194;9.886;2023-01-25T13:41:26;64.54;40.03;82.69;;
53702;Laerm;39594;52.194;9.886;2023-01-25T13:43:53;65.62;40.62;79.41;;
53702;Laerm;39594;52.194;9.886;2023-01-25T13:46:20;64.02;37.52;75.26;;
53702;Laerm;39594;52.194;9.886;2023-01-25T13:48:50;62.75;41.89;72.78;;
53702;Laerm;39594;52.194;9.886;2023-01-25T13:51:20;64.08;38.95;74.14;;
53702;Laerm;39594;52.194;9.886;2023-01-25T13:53:53;66.03;43.14;76.68;;
53702;Laerm;39594;52.194;9.886;2023-01-25T13:56:23;61.91;40.03;73.40;;
53702;Laerm;39594;52.194;9.886;2023-01-25T13:58:48;62.74;39.58;75.03;;
53702;Laerm;39594;52.194;9.886;2023-01-25T14:01:16;62.99;38.67;72.50;;
53702;Laerm;39594;52.194;9.886;2023-01-25T14:03:43;64.98;42.03;77.48;;
53702;Laerm;39594;52.194;9.886;2023-01-25T14:06:19;66.20;40.43;80.71;;
53702;Laerm;39594;52.194;9.886;2023-01-25T14:08:46;65.34;38.52;77.85;;
53702;Laerm;39594;52.194;9.886;2023-01-25T14:11:19;63.24;40.62;74.39;;
53702;Laerm;39594;52.194;9.886;2023-01-25T14:14:01;62.84;39.21;73.53;;
53702;Laerm;39594;52.194;9.886;2023-01-25T14:16:27;66.43;41.89;81.22;;
53702;Laerm;39594;52.194;9.886;2023-01-25T14:18:53;65.93;40.23;81.33;;
53702;Laerm;39594;52.194;9.886;2023-01-25T14:21:19;64.42;42.41;77.61;;
53702;Laerm;39594;52.194;9.886;2023-01-25T14:23:45;64.03;41.61;76.33;;
53702;Laerm;39594;52.194;9.886;2023-01-25T14:26:28;66.41;44.01;79.55;;
53702;Laerm;39594;52.194;9.886;2023-01-25T14:28:56;64.16;41.22;75.49;;
53702;Laerm;39594;52.194;9.886;2023-01-25T14:31:34;63.09;39.58;73.46;;
53702;Laerm;39594;52.194;9.886;2023-01-25T14:33:59;65.32;39.81;78.65;;
53702;Laerm;39594;52.194;9.886;2023-01-25T14:36:28;62.88;40.71;75.50;;
53702;Laerm;39594;52.194;9.886;2023-01-25T14:38:55;64.91;38.81;77.23;;
53702;Laerm;39594;52.194;9.886;2023-01-25T14:41:33;63.65;38.81;76.93;;
53702;Laerm;39594;52.194;9.886;2023-01-25T14:44:09;64.83;38.95;75.54;;
53702;Laerm;39594;52.194;9.886;2023-01-25T14:46:36;63.80;39.08;75.20;;
53702;Laerm;39594;52.194;9.886;2023-01-25T14:51:50;64.99;36.45;77.88;;
53702;Laerm;39594;52.194;9.886;2023-01-25T14:54:18;62.32;39.92;74.84;;
53702;Laerm;39594;52.194;9.886;2023-01-25T14:56:51;64.01;39.58;76.15;;
53702;Laerm;39594;52.194;9.886;2023-01-25T14:59:28;66.43;45.01;77.00;;
53702;Laerm;39594;52.194;9.886;2023-01-25T15:01:55;65.54;38.05;77.41;;
53702;Laerm;39594;52.194;9.886;2023-01-25T15:04:21;66.01;43.58;76.26;;
53702;Laerm;39594;52.194;9.886;2023-01-25T15:06:48;65.91;40.62;75.38;;
53702;Laerm;39594;52.194;9.886;2023-01-25T15:11:58;65.43;40.53;75.21;;
53702;Laerm;39594;52.194;9.886;2023-01-25T15:14:23;64.67;43.44;74.72;;
53702;Laerm;39594;52.194;9.886;2023-01-25T15:16:48;64.59;42.16;77.97;;
53702;Laerm;39594;52.194;9.886;2023-01-25T15:19:29;66.14;43.99;78.31;;
53702;Laerm;39594;52.194;9.886;2023-01-25T15:21:55;65.49;40.03;76.46;;
53702;Laerm;39594;52.194;9.886;2023-01-25T15:24:21;62.59;35.94;74.00;;
53702;Laerm;39594;52.194;9.886;2023-01-25T15:26:48;65.41;40.62;74.65;;
53702;Laerm;39594;52.194;9.886;2023-01-25T15:29:14;66.41;38.67;82.15;;